Time;durP1;ratioP1;P1;durP2;ratioP2;P2;SDS_P1;SDS_P2;PMS_P1;PMS_P2;Temp;Humidity;BMP_temperature;BMP_pressure;BME280_temperature;BME280_humidity;BME280_pressure;Samples;Min_cycle;Max_cycle;Signal;HPM_P1;HPM_P2
2021/06/24 00:01:43;;;;;;;20.60;5.18;;;;;;;;;;5070113;28;20469;-69
2021/06/24 00:04:10;;;;;;;13.45;5.00;;;;;;;;;;5069539;28;20099;-69
2021/06/24 00:06:36;;;;;;;13.90;4.50;;;;;;;;;;5069726;28;20092;-70
2021/06/24 00:09:02;;;;;;;14.48;4.57;;;;;;;;;;5069763;28;20028;-70
2021/06/24 00:11:28;;;;;;;11.07;3.83;;;;;;;;;;5067957;28;20021;-70
2021/06/24 00:13:55;;;;;;;12.07;4.35;;;;;;;;;;5069678;28;20115;-69
2021/06/24 00:16:21;;;;;;;17.60;5.50;;;;;;;;;;5069525;28;20035;-70
2021/06/24 00:18:47;;;;;;;12.68;4.20;;;;;;;;;;5069125;28;20448;-69
2021/06/24 00:21:13;;;;;;;15.32;4.53;;;;;;;;;;5069662;28;20037;-69
2021/06/24 00:23:39;;;;;;;15.95;4.60;;;;;;;;;;5067906;28;20017;-69
2021/06/24 00:26:05;;;;;;;12.60;4.10;;;;;;;;;;5069453;28;20035;-69
2021/06/24 00:28:32;;;;;;;12.18;3.53;;;;;;;;;;5069338;28;20481;-70
2021/06/24 00:30:58;;;;;;;10.70;3.65;;;;;;;;;;5068929;28;20025;-70
2021/06/24 00:33:25;;;;;;;10.60;3.90;;;;;;;;;;5067866;28;20066;-70
2021/06/24 00:35:51;;;;;;;10.32;3.80;;;;;;;;;;5069203;28;20417;-70
2021/06/24 00:38:17;;;;;;;11.70;3.95;;;;;;;;;;5068698;28;20016;-70
2021/06/24 00:40:44;;;;;;;12.05;3.80;;;;;;;;;;5069321;28;20396;-70
2021/06/24 00:43:13;;;;;;;8.02;3.30;;;;;;;;;;5069289;28;20021;-70
2021/06/24 00:45:39;;;;;;;12.30;4.05;;;;;;;;;;5068590;28;20021;-69
2021/06/24 00:48:59;;;;;;;14.25;4.43;;;;;;;;;;5069770;28;20501;-69
2021/06/24 00:51:25;;;;;;;13.43;4.05;;;;;;;;;;5069831;28;20025;-69
2021/06/24 00:53:52;;;;;;;11.23;4.43;;;;;;;;;;5069277;28;20047;-69
2021/06/24 00:56:25;;;;;;;14.13;4.93;;;;;;;;;;5069720;28;20024;-69
2021/06/24 00:58:51;;;;;;;17.35;4.97;;;;;;;;;;5069310;28;20029;-70
2021/06/24 01:03:27;;;;;;;15.77;4.25;;;;;;;;;;5110596;27;20415;-69
2021/06/24 01:05:53;;;;;;;15.40;4.18;;;;;;;;;;5125949;28;20024;-70
2021/06/24 01:08:24;;;;;;;14.32;5.25;;;;;;;;;;5110734;28;20104;-70
2021/06/24 01:10:50;;;;;;;22.80;5.57;;;;;;;;;;5110440;28;20024;-69
2021/06/24 01:13:17;;;;;;;15.00;4.85;;;;;;;;;;5125833;28;20094;-69
2021/06/24 01:15:43;;;;;;;14.18;4.57;;;;;;;;;;5110271;28;20024;-69
2021/06/24 01:18:09;;;;;;;12.93;4.55;;;;;;;;;;5110189;28;20024;-69
2021/06/24 01:20:36;;;;;;;13.13;4.30;;;;;;;;;;5109932;28;20024;-69
2021/06/24 01:23:04;;;;;;;11.68;4.13;;;;;;;;;;5126052;28;20035;-69
2021/06/24 01:25:30;;;;;;;11.00;4.28;;;;;;;;;;5126008;28;20100;-69
2021/06/24 01:28:00;;;;;;;15.68;5.25;;;;;;;;;;5109681;28;20024;-69
2021/06/24 01:30:26;;;;;;;11.73;4.13;;;;;;;;;;5125979;28;20016;-70
2021/06/24 01:32:53;;;;;;;20.73;5.05;;;;;;;;;;5110142;28;20476;-70
2021/06/24 01:35:23;;;;;;;16.48;5.90;;;;;;;;;;5109401;28;20027;-70
2021/06/24 01:37:49;;;;;;;18.25;5.95;;;;;;;;;;5109808;28;20030;-70
2021/06/24 01:40:17;;;;;;;18.98;6.00;;;;;;;;;;5109875;28;20024;-70
2021/06/24 01:42:43;;;;;;;19.20;6.38;;;;;;;;;;5109432;28;20115;-69
2021/06/24 01:45:09;;;;;;;13.65;5.20;;;;;;;;;;5125587;28;20042;-69
2021/06/24 01:47:36;;;;;;;21.15;5.60;;;;;;;;;;5125464;28;20031;-70
2021/06/24 01:50:02;;;;;;;13.98;5.68;;;;;;;;;;5125132;28;20026;-69
2021/06/24 01:52:29;;;;;;;13.63;4.40;;;;;;;;;;5125363;28;20054;-70
2021/06/24 01:54:55;;;;;;;14.30;4.55;;;;;;;;;;5108175;28;20020;-70
2021/06/24 01:58:12;;;;;;;13.68;5.00;;;;;;;;;;5069831;28;20839;-69
2021/06/24 02:02:33;;;;;;;15.77;5.78;;;;;;;;;;5029897;28;20766;-70
2021/06/24 02:05:15;;;;;;;19.73;4.72;;;;;;;;;;5110444;27;20462;-70
2021/06/24 02:07:42;;;;;;;19.98;5.38;;;;;;;;;;5110712;28;20035;-70
2021/06/24 02:10:09;;;;;;;12.20;4.82;;;;;;;;;;5109884;28;20061;-70
2021/06/24 02:12:36;;;;;;;20.98;5.13;;;;;;;;;;5126146;28;20028;-70
2021/06/24 02:15:03;;;;;;;15.98;4.18;;;;;;;;;;5110176;28;20058;-69
2021/06/24 02:17:47;;;;;;;19.95;5.60;;;;;;;;;;5110084;27;20504;-69
2021/06/24 02:20:14;;;;;;;11.80;5.32;;;;;;;;;;5109313;28;20055;-70
2021/06/24 02:22:41;;;;;;;11.45;5.07;;;;;;;;;;5110636;28;20032;-69
2021/06/24 02:25:08;;;;;;;23.25;7.10;;;;;;;;;;5108512;28;20032;-69
2021/06/24 02:27:35;;;;;;;23.08;8.00;;;;;;;;;;5110263;28;20102;-70
2021/06/24 02:30:01;;;;;;;27.73;6.05;;;;;;;;;;5110293;28;20020;-69
2021/06/24 02:32:27;;;;;;;15.73;5.05;;;;;;;;;;5109781;28;20447;-70
2021/06/24 02:36:51;;;;;;;17.75;5.57;;;;;;;;;;5110365;27;20389;-70
2021/06/24 02:39:17;;;;;;;12.18;4.85;;;;;;;;;;5108821;28;20034;-70
2021/06/24 02:42:21;;;;;;;16.67;4.70;;;;;;;;;;5110661;27;20393;-70
2021/06/24 02:44:47;;;;;;;13.88;5.47;;;;;;;;;;5125754;28;20027;-69
2021/06/24 02:48:24;;;;;;;12.02;4.38;;;;;;;;;;5110325;27;21032;-69
2021/06/24 02:52:43;;;;;;;15.65;5.20;;;;;;;;;;5172142;27;20166;-69
2021/06/24 02:55:09;;;;;;;13.27;4.22;;;;;;;;;;5132974;27;20493;-71
2021/06/24 02:57:36;;;;;;;18.00;5.18;;;;;;;;;;5132985;27;20282;-70
2021/06/24 03:00:05;;;;;;;14.15;5.38;;;;;;;;;;5151196;27;20366;-70
2021/06/24 03:02:31;;;;;;;9.55;4.72;;;;;;;;;;5133176;27;20050;-69
2021/06/24 03:04:57;;;;;;;16.10;3.80;;;;;;;;;;5151635;27;20030;-69
2021/06/24 03:07:23;;;;;;;12.40;4.68;;;;;;;;;;5150890;27;20016;-70
2021/06/24 03:09:50;;;;;;;13.95;5.68;;;;;;;;;;5151334;27;20019;-70
2021/06/24 03:12:16;;;;;;;14.60;4.40;;;;;;;;;;5151171;27;20038;-70
2021/06/24 03:14:42;;;;;;;14.93;4.80;;;;;;;;;;5132288;27;20177;-69
2021/06/24 03:17:08;;;;;;;16.08;4.47;;;;;;;;;;5151484;27;20047;-69
2021/06/24 03:19:34;;;;;;;15.00;5.45;;;;;;;;;;5150845;27;20497;-69
2021/06/24 03:22:01;;;;;;;19.08;4.72;;;;;;;;;;5151294;27;20056;-69
2021/06/24 03:24:27;;;;;;;15.18;4.75;;;;;;;;;;5151220;27;20019;-69
2021/06/24 03:26:53;;;;;;;14.30;5.80;;;;;;;;;;5150610;27;20483;-69
2021/06/24 03:29:19;;;;;;;12.63;5.70;;;;;;;;;;5150990;27;20096;-70
2021/06/24 03:31:46;;;;;;;18.65;5.68;;;;;;;;;;5150806;27;20386;-70
2021/06/24 03:34:12;;;;;;;21.55;7.15;;;;;;;;;;5131858;27;20485;-70
2021/06/24 03:36:38;;;;;;;14.20;5.65;;;;;;;;;;5150833;27;20033;-70
2021/06/24 03:39:04;;;;;;;13.77;5.35;;;;;;;;;;5150746;27;20023;-70
2021/06/24 03:41:30;;;;;;;11.27;4.53;;;;;;;;;;5150506;27;20019;-70
2021/06/24 03:43:57;;;;;;;16.83;4.70;;;;;;;;;;5150878;27;20098;-70
2021/06/24 03:46:24;;;;;;;12.48;4.57;;;;;;;;;;5150546;27;20015;-69
2021/06/24 03:48:51;;;;;;;11.70;4.82;;;;;;;;;;5150423;27;20066;-69
2021/06/24 03:51:17;;;;;;;15.00;5.07;;;;;;;;;;5150242;27;20054;-70
2021/06/24 03:53:43;;;;;;;14.88;5.50;;;;;;;;;;5150500;27;20019;-70
2021/06/24 03:56:10;;;;;;;13.75;4.90;;;;;;;;;;5150078;27;20027;-70
2021/06/24 03:58:36;;;;;;;16.00;6.43;;;;;;;;;;5131839;27;20383;-70
2021/06/24 04:01:02;;;;;;;15.18;4.80;;;;;;;;;;5150424;27;20030;-70
2021/06/24 04:03:28;;;;;;;18.75;5.53;;;;;;;;;;5139547;27;20531;-70
2021/06/24 04:05:55;;;;;;;23.27;5.55;;;;;;;;;;5136516;27;20034;-70
2021/06/24 04:08:31;;;;;;;15.27;5.05;;;;;;;;;;5110436;27;20869;-70
2021/06/24 04:10:57;;;;;;;12.48;4.97;;;;;;;;;;5110015;28;20046;-69
2021/06/24 04:13:24;;;;;;;12.80;4.22;;;;;;;;;;5109091;28;20020;-69
2021/06/24 04:15:50;;;;;;;22.92;4.85;;;;;;;;;;5108613;28;20055;-70
2021/06/24 04:18:16;;;;;;;12.95;4.43;;;;;;;;;;5110247;28;20095;-69
2021/06/24 04:20:42;;;;;;;11.18;4.10;;;;;;;;;;5110288;28;20040;-70
2021/06/24 04:23:09;;;;;;;15.45;5.13;;;;;;;;;;5110017;28;20024;-70
2021/06/24 04:25:36;;;;;;;14.82;4.97;;;;;;;;;;5110215;28;20426;-69
2021/06/24 04:28:02;;;;;;;14.85;5.60;;;;;;;;;;5108660;28;20498;-70
2021/06/24 04:30:29;;;;;;;16.05;6.22;;;;;;;;;;5109656;28;20144;-70
2021/06/24 04:32:56;;;;;;;15.43;4.88;;;;;;;;;;5110092;28;20070;-71
2021/06/24 04:37:15;;;;;;;10.90;3.83;;;;;;;;;;5110091;27;20520;-69
2021/06/24 04:40:11;;;;;;;13.13;5.18;;;;;;;;;;5110488;27;20469;-70
2021/06/24 04:42:38;;;;;;;11.43;4.25;;;;;;;;;;5110509;28;20028;-70
2021/06/24 04:45:45;;;;;;;17.90;5.28;;;;;;;;;;5069626;27;20396;-69
2021/06/24 04:48:11;;;;;;;16.50;4.65;;;;;;;;;;5069903;28;20021;-69
2021/06/24 04:50:37;;;;;;;18.20;5.82;;;;;;;;;;5069922;28;20099;-69
2021/06/24 04:53:04;;;;;;;15.18;5.25;;;;;;;;;;5068219;28;20021;-70
2021/06/24 04:55:38;;;;;;;12.73;4.40;;;;;;;;;;5068414;28;20028;-69
2021/06/24 04:58:05;;;;;;;18.27;5.00;;;;;;;;;;5069405;28;20515;-70
2021/06/24 05:00:31;;;;;;;15.90;5.60;;;;;;;;;;5069657;28;20029;-69
2021/06/24 05:02:57;;;;;;;12.98;3.85;;;;;;;;;;5068468;28;20025;-67
2021/06/24 05:05:23;;;;;;;13.32;4.57;;;;;;;;;;5069196;28;20171;-67
2021/06/24 05:07:50;;;;;;;12.90;4.15;;;;;;;;;;5069535;28;20385;-67
2021/06/24 05:10:17;;;;;;;11.40;4.47;;;;;;;;;;5068182;28;20025;-66
2021/06/24 05:13:24;;;;;;;17.48;5.00;;;;;;;;;;5066464;28;20840;-66
2021/06/24 05:16:47;;;;;;;15.02;5.78;;;;;;;;;;5107740;27;20928;-67
2021/06/24 05:20:11;;;;;;;20.45;5.65;;;;;;;;;;5108809;27;20380;-66
2021/06/24 05:22:38;;;;;;;17.52;5.65;;;;;;;;;;5107606;28;20032;-66
2021/06/24 05:25:04;;;;;;;13.57;5.25;;;;;;;;;;5087540;28;20040;-67
2021/06/24 05:27:31;;;;;;;13.45;4.95;;;;;;;;;;5088996;28;20426;-67
2021/06/24 05:29:57;;;;;;;14.57;6.30;;;;;;;;;;5087958;28;20183;-67
2021/06/24 05:32:23;;;;;;;11.52;4.97;;;;;;;;;;5087868;28;20425;-66
2021/06/24 05:35:33;;;;;;;10.10;5.35;;;;;;;;;;5069467;27;20399;-66
2021/06/24 05:38:00;;;;;;;9.93;4.25;;;;;;;;;;5067744;28;20025;-66
2021/06/24 05:40:26;;;;;;;17.40;5.63;;;;;;;;;;5068984;28;20031;-66
2021/06/24 05:42:52;;;;;;;10.32;4.97;;;;;;;;;;5068230;28;20021;-67
2021/06/24 05:45:25;;;;;;;11.45;4.22;;;;;;;;;;5068680;28;20027;-67
2021/06/24 05:47:52;;;;;;;12.40;4.90;;;;;;;;;;5068136;28;20126;-66
2021/06/24 05:50:18;;;;;;;18.45;6.63;;;;;;;;;;5067568;28;20025;-66
2021/06/24 05:52:44;;;;;;;13.80;5.85;;;;;;;;;;5068016;28;20029;-66
2021/06/24 05:55:11;;;;;;;17.77;6.32;;;;;;;;;;5068205;28;20032;-66
2021/06/24 05:57:37;;;;;;;11.90;4.80;;;;;;;;;;5067684;28;20694;-65
2021/06/24 06:00:05;;;;;;;16.48;5.75;;;;;;;;;;5068932;28;20043;-67
2021/06/24 06:02:31;;;;;;;15.85;5.43;;;;;;;;;;5066007;28;20477;-67
2021/06/24 06:04:57;;;;;;;12.93;5.25;;;;;;;;;;5067947;28;20142;-67
2021/06/24 06:07:24;;;;;;;20.23;5.60;;;;;;;;;;5065383;28;20013;-66
2021/06/24 06:09:50;;;;;;;17.63;6.30;;;;;;;;;;5067860;28;20431;-67
2021/06/24 06:12:16;;;;;;;14.88;5.05;;;;;;;;;;5068835;28;20027;-67
2021/06/24 06:14:42;;;;;;;15.07;6.30;;;;;;;;;;5068733;28;20082;-67
2021/06/24 06:17:08;;;;;;;17.27;5.32;;;;;;;;;;5067007;28;20021;-67
2021/06/24 06:19:34;;;;;;;14.85;5.05;;;;;;;;;;5068235;28;20500;-68
2021/06/24 06:22:01;;;;;;;16.25;5.18;;;;;;;;;;5067778;28;20031;-68
2021/06/24 06:25:36;;;;;;;12.60;4.57;;;;;;;;;;5109981;27;20393;-67
2021/06/24 06:28:03;;;;;;;15.02;5.30;;;;;;;;;;5124921;28;20032;-67
2021/06/24 06:30:29;;;;;;;16.45;5.47;;;;;;;;;;5101687;28;20069;-66
2021/06/24 06:32:55;;;;;;;24.42;5.88;;;;;;;;;;5103773;28;20104;-66
2021/06/24 06:35:21;;;;;;;16.30;4.95;;;;;;;;;;5089178;28;20027;-67
2021/06/24 06:37:48;;;;;;;15.60;5.55;;;;;;;;;;5088827;28;20100;-67
2021/06/24 06:40:14;;;;;;;17.17;6.32;;;;;;;;;;5089282;28;20081;-66
2021/06/24 06:42:41;;;;;;;20.45;6.38;;;;;;;;;;5089185;28;20070;-67
2021/06/24 06:45:08;;;;;;;12.52;5.40;;;;;;;;;;5086378;28;20036;-67
2021/06/24 06:48:54;;;;;;;18.40;4.97;;;;;;;;;;5069201;28;20403;-67
2021/06/24 06:51:23;;;;;;;12.50;5.32;;;;;;;;;;5068676;28;20036;-67
2021/06/24 06:53:50;;;;;;;19.02;4.95;;;;;;;;;;5068861;28;20029;-67
2021/06/24 06:56:16;;;;;;;14.38;5.35;;;;;;;;;;5069044;28;20504;-69
2021/06/24 06:58:42;;;;;;;9.73;4.13;;;;;;;;;;5066102;28;20092;-69
2021/06/24 07:01:08;;;;;;;16.75;5.38;;;;;;;;;;5069183;28;20385;-69
2021/06/24 07:03:35;;;;;;;12.35;4.05;;;;;;;;;;5068603;28;20086;-74
2021/06/24 07:06:01;;;;;;;19.10;5.50;;;;;;;;;;5068988;28;20045;-74
2021/06/24 07:08:27;;;;;;;16.10;5.75;;;;;;;;;;5068830;28;20381;-75
2021/06/24 07:10:53;;;;;;;10.68;4.68;;;;;;;;;;5067331;28;20024;-73
2021/06/24 07:13:19;;;;;;;16.25;5.03;;;;;;;;;;5068678;28;20032;-74
2021/06/24 07:15:46;;;;;;;13.95;5.13;;;;;;;;;;5068672;28;20021;-75
2021/06/24 07:18:12;;;;;;;14.48;4.93;;;;;;;;;;5068575;28;20111;-74
2021/06/24 07:20:39;;;;;;;18.55;5.38;;;;;;;;;;5066464;28;20024;-74
2021/06/24 07:23:05;;;;;;;20.45;6.28;;;;;;;;;;5066918;28;20484;-74
2021/06/24 07:25:32;;;;;;;18.40;5.25;;;;;;;;;;5065315;28;20032;-74
2021/06/24 07:27:58;;;;;;;12.75;5.82;;;;;;;;;;5067463;28;20039;-74
2021/06/24 07:30:24;;;;;;;8.52;3.85;;;;;;;;;;5068112;28;20021;-75
2021/06/24 07:32:50;;;;;;;15.70;4.70;;;;;;;;;;5068359;28;20028;-73
2021/06/24 07:35:17;;;;;;;15.40;5.05;;;;;;;;;;5068478;28;20074;-74
2021/06/24 07:37:44;;;;;;;14.68;4.78;;;;;;;;;;5068079;28;20024;-74
2021/06/24 07:40:11;;;;;;;22.08;7.20;;;;;;;;;;5067379;28;20021;-66
2021/06/24 07:42:37;;;;;;;12.98;4.72;;;;;;;;;;5068232;28;20481;-66
2021/06/24 07:45:04;;;;;;;20.88;6.28;;;;;;;;;;5066990;28;20028;-67
2021/06/24 07:47:30;;;;;;;20.95;5.97;;;;;;;;;;5060068;28;20047;-67
2021/06/24 07:49:56;;;;;;;19.88;5.60;;;;;;;;;;5065969;28;20551;-67
2021/06/24 07:52:22;;;;;;;13.40;4.50;;;;;;;;;;5067292;28;20039;-66
2021/06/24 07:54:49;;;;;;;19.63;5.90;;;;;;;;;;5067322;28;20028;-67
2021/06/24 07:57:15;;;;;;;18.05;6.55;;;;;;;;;;5067734;28;20039;-67
2021/06/24 07:59:41;;;;;;;14.73;5.55;;;;;;;;;;5054900;28;20021;-66
2021/06/24 08:02:07;;;;;;;18.60;4.88;;;;;;;;;;5051550;28;20417;-67
2021/06/24 08:04:34;;;;;;;17.83;5.78;;;;;;;;;;5054581;28;20554;-67
2021/06/24 08:07:01;;;;;;;20.63;5.40;;;;;;;;;;5054542;28;20037;-66
2021/06/24 08:09:27;;;;;;;15.07;5.40;;;;;;;;;;5054075;28;20029;-67
2021/06/24 08:11:53;;;;;;;14.13;4.68;;;;;;;;;;5053797;28;20025;-66
2021/06/24 08:14:21;;;;;;;15.13;4.63;;;;;;;;;;5054069;28;20363;-67
2021/06/24 08:16:47;;;;;;;22.02;5.35;;;;;;;;;;5053729;28;20178;-66
2021/06/24 08:19:13;;;;;;;17.80;4.57;;;;;;;;;;5054200;28;20028;-66
2021/06/24 08:21:40;;;;;;;14.75;5.82;;;;;;;;;;5050857;28;20354;-66
2021/06/24 08:24:06;;;;;;;13.63;4.88;;;;;;;;;;5053887;28;20102;-66
2021/06/24 08:26:32;;;;;;;10.48;4.22;;;;;;;;;;5053723;28;20035;-66
2021/06/24 08:28:59;;;;;;;16.20;5.15;;;;;;;;;;5052310;28;20103;-67
2021/06/24 08:31:25;;;;;;;16.50;5.00;;;;;;;;;;5053890;28;20021;-67
2021/06/24 08:33:51;;;;;;;18.60;4.75;;;;;;;;;;5053188;28;20116;-67
2021/06/24 08:36:19;;;;;;;13.68;4.78;;;;;;;;;;5049942;28;20389;-67
2021/06/24 08:38:45;;;;;;;14.63;4.57;;;;;;;;;;5053925;28;20029;-67
2021/06/24 08:41:14;;;;;;;16.25;4.88;;;;;;;;;;5050786;28;20293;-67
2021/06/24 08:43:41;;;;;;;14.82;4.63;;;;;;;;;;5050020;28;20053;-67
2021/06/24 08:46:07;;;;;;;16.77;5.35;;;;;;;;;;5051975;28;20025;-67
2021/06/24 08:48:35;;;;;;;14.13;4.68;;;;;;;;;;5051678;28;20473;-66
2021/06/24 08:51:01;;;;;;;13.55;5.30;;;;;;;;;;5052305;28;20021;-66
2021/06/24 08:53:28;;;;;;;15.30;4.55;;;;;;;;;;5052674;28;20392;-67
2021/06/24 08:55:55;;;;;;;12.25;3.90;;;;;;;;;;5053462;28;20029;-66
2021/06/24 08:58:23;;;;;;;16.48;5.45;;;;;;;;;;5053093;28;20031;-73
2021/06/24 09:00:50;;;;;;;14.65;4.82;;;;;;;;;;5052164;28;20051;-75
2021/06/24 09:03:21;;;;;;;18.10;6.43;;;;;;;;;;5053849;28;20027;-73
2021/06/24 09:05:50;;;;;;;14.38;6.07;;;;;;;;;;5050960;28;20398;-71
2021/06/24 09:08:23;;;;;;;19.73;6.78;;;;;;;;;;5051349;28;20108;-71
2021/06/24 09:11:08;;;;;;;12.40;5.32;;;;;;;;;;5049941;28;20651;-71
2021/06/24 09:13:34;;;;;;;22.80;6.18;;;;;;;;;;5052307;28;20029;-72
2021/06/24 09:16:17;;;;;;;18.55;5.80;;;;;;;;;;5053413;28;20446;-71
2021/06/24 09:18:44;;;;;;;15.00;5.88;;;;;;;;;;5052804;28;20079;-74
2021/06/24 09:21:21;;;;;;;22.08;6.22;;;;;;;;;;5049648;28;20025;-73
2021/06/24 09:23:49;;;;;;;16.77;5.63;;;;;;;;;;5052967;28;20100;-73
2021/06/24 09:26:15;;;;;;;16.67;4.80;;;;;;;;;;5051682;28;20025;-74
2021/06/24 09:28:43;;;;;;;12.02;4.97;;;;;;;;;;5051652;28;20033;-73
2021/06/24 09:31:28;;;;;;;20.77;5.57;;;;;;;;;;5050829;28;20838;-73
2021/06/24 09:33:56;;;;;;;15.57;5.30;;;;;;;;;;5049151;28;20029;-74
2021/06/24 09:36:40;;;;;;;16.67;5.35;;;;;;;;;;5048183;28;20045;-74
2021/06/24 09:39:07;;;;;;;10.57;4.35;;;;;;;;;;5048979;28;20454;-75
2021/06/24 09:41:34;;;;;;;24.63;7.55;;;;;;;;;;5048807;28;20021;-75
2021/06/24 09:44:00;;;;;;;18.50;4.82;;;;;;;;;;5051063;28;20078;-74
2021/06/24 09:46:30;;;;;;;23.67;5.97;;;;;;;;;;5051097;28;20025;-74
2021/06/24 09:48:59;;;;;;;15.10;4.20;;;;;;;;;;5052846;28;20085;-74
2021/06/24 09:51:27;;;;;;;21.95;6.93;;;;;;;;;;5052591;28;20024;-73
2021/06/24 09:53:56;;;;;;;17.55;6.05;;;;;;;;;;5052452;28;20032;-74
2021/06/24 09:56:32;;;;;;;13.00;4.38;;;;;;;;;;5052777;28;20031;-73
2021/06/24 09:59:05;;;;;;;15.13;4.45;;;;;;;;;;5051682;28;20028;-73
2021/06/24 10:01:37;;;;;;;20.23;5.75;;;;;;;;;;5047280;28;20017;-73
2021/06/24 10:04:18;;;;;;;19.52;6.47;;;;;;;;;;5048251;28;20028;-73
2021/06/24 10:06:45;;;;;;;19.63;5.70;;;;;;;;;;5039164;28;20025;-73
2021/06/24 10:09:12;;;;;;;15.57;4.47;;;;;;;;;;5048147;28;20032;-73
2021/06/24 10:11:38;;;;;;;11.77;3.90;;;;;;;;;;5051917;28;20096;-74
2021/06/24 10:14:05;;;;;;;16.55;4.82;;;;;;;;;;5052175;28;20055;-74
2021/06/24 10:16:31;;;;;;;16.52;5.07;;;;;;;;;;5050996;28;20013;-73
2021/06/24 10:18:59;;;;;;;15.40;3.88;;;;;;;;;;5051315;28;20037;-73
2021/06/24 10:21:25;;;;;;;18.45;4.63;;;;;;;;;;5050248;28;20084;-73
2021/06/24 10:24:01;;;;;;;12.60;4.53;;;;;;;;;;5052457;28;20664;-73
2021/06/24 10:26:28;;;;;;;19.02;4.78;;;;;;;;;;5051278;28;20079;-73
2021/06/24 10:29:14;;;;;;;18.60;4.97;;;;;;;;;;5050194;28;20026;-73
2021/06/24 10:32:02;;;;;;;17.98;5.00;;;;;;;;;;5050972;28;20029;-73
2021/06/24 10:34:46;;;;;;;15.27;3.78;;;;;;;;;;5051858;28;20028;-73
2021/06/24 10:37:13;;;;;;;15.07;4.53;;;;;;;;;;5049413;28;20024;-73
2021/06/24 10:39:41;;;;;;;11.90;4.32;;;;;;;;;;5042983;28;20029;-72
2021/06/24 10:42:11;;;;;;;10.90;3.58;;;;;;;;;;5051750;28;20025;-73
2021/06/24 10:44:44;;;;;;;18.30;5.57;;;;;;;;;;5050708;28;20089;-73
2021/06/24 10:47:11;;;;;;;19.23;4.82;;;;;;;;;;5051949;28;20076;-73
2021/06/24 10:49:39;;;;;;;15.63;3.72;;;;;;;;;;5051473;28;20080;-75
2021/06/24 10:52:34;;;;;;;13.05;4.20;;;;;;;;;;5051379;28;20551;-74
2021/06/24 10:55:00;;;;;;;19.98;4.00;;;;;;;;;;5051239;28;20486;-74
2021/06/24 10:57:35;;;;;;;11.70;3.38;;;;;;;;;;5051595;28;20025;-74
2021/06/24 11:00:20;;;;;;;17.23;5.07;;;;;;;;;;5050916;28;20028;-74
2021/06/24 11:02:51;;;;;;;18.73;3.83;;;;;;;;;;5051053;28;20017;-74
2021/06/24 11:05:21;;;;;;;17.80;5.93;;;;;;;;;;5052151;28;20477;-74
2021/06/24 11:07:49;;;;;;;12.48;3.97;;;;;;;;;;5050719;28;20067;-74
2021/06/24 11:10:20;;;;;;;18.48;4.47;;;;;;;;;;5051338;28;20017;-74
2021/06/24 11:12:50;;;;;;;14.30;4.20;;;;;;;;;;5051727;28;20596;-74
2021/06/24 11:15:52;;;;;;;15.82;5.90;;;;;;;;;;5050829;28;20025;-74
2021/06/24 11:18:36;;;;;;;14.97;3.87;;;;;;;;;;4988954;28;20033;-74
2021/06/24 11:21:04;;;;;;;18.23;4.50;;;;;;;;;;5048613;28;20052;-73
2021/06/24 11:23:34;;;;;;;14.80;3.47;;;;;;;;;;5052065;28;20025;-74
2021/06/24 11:26:06;;;;;;;14.00;4.20;;;;;;;;;;5051649;28;20017;-74
2021/06/24 11:28:44;;;;;;;12.15;4.18;;;;;;;;;;5051543;28;20092;-74
2021/06/24 11:31:12;;;;;;;15.13;4.25;;;;;;;;;;5051497;28;20032;-74
2021/06/24 11:33:49;;;;;;;19.30;4.60;;;;;;;;;;5052000;28;20028;-74
2021/06/24 11:36:18;;;;;;;17.00;3.75;;;;;;;;;;5055763;28;20021;-74
2021/06/24 11:38:45;;;;;;;13.85;3.60;;;;;;;;;;5055453;28;20021;-74
2021/06/24 11:41:11;;;;;;;12.88;3.88;;;;;;;;;;5055304;28;20077;-75
2021/06/24 11:43:39;;;;;;;13.40;3.40;;;;;;;;;;5055657;28;20021;-74
2021/06/24 11:46:05;;;;;;;14.43;3.17;;;;;;;;;;5054015;28;20090;-74
2021/06/24 11:48:32;;;;;;;18.73;4.50;;;;;;;;;;5055243;28;20044;-74
2021/06/24 12:05:04;;;;;;;12.52;3.40;;;;;;;;;;5054902;28;20052;-74
2021/06/24 12:07:33;;;;;;;11.23;3.85;;;;;;;;;;5054519;28;20033;-72
2021/06/24 12:09:59;;;;;;;15.15;4.00;;;;;;;;;;5055022;28;20047;-70
2021/06/24 12:12:26;;;;;;;13.68;3.58;;;;;;;;;;5055036;28;20472;-70
2021/06/24 12:14:57;;;;;;;14.70;3.20;;;;;;;;;;5054689;28;20029;-70
2021/06/24 12:17:27;;;;;;;7.03;2.75;;;;;;;;;;5055012;28;20036;-71
2021/06/24 12:20:29;;;;;;;12.15;3.38;;;;;;;;;;5053592;28;20029;-70
2021/06/24 12:22:59;;;;;;;18.40;5.32;;;;;;;;;;5052442;28;20524;-70
2021/06/24 12:25:28;;;;;;;20.15;3.47;;;;;;;;;;5054332;28;20033;-70
2021/06/24 12:27:56;;;;;;;9.68;3.05;;;;;;;;;;5054750;28;20087;-71
2021/06/24 12:30:22;;;;;;;11.95;3.65;;;;;;;;;;5054375;28;20044;-71
2021/06/24 12:32:49;;;;;;;16.67;4.75;;;;;;;;;;5054188;28;20048;-70
2021/06/24 12:35:23;;;;;;;15.07;3.72;;;;;;;;;;5054378;28;20477;-71
2021/06/24 12:37:50;;;;;;;17.08;4.72;;;;;;;;;;5053320;28;20032;-70
2021/06/24 12:40:18;;;;;;;14.50;4.13;;;;;;;;;;5054568;28;20029;-70
2021/06/24 12:42:49;;;;;;;15.43;3.78;;;;;;;;;;5054183;28;20384;-70
2021/06/24 12:45:16;;;;;;;21.20;4.78;;;;;;;;;;5054655;28;20052;-70
2021/06/24 12:47:44;;;;;;;11.90;3.80;;;;;;;;;;5053993;28;20577;-70
2021/06/24 12:50:18;;;;;;;20.13;4.43;;;;;;;;;;5053963;28;20070;-70
2021/06/24 12:52:44;;;;;;;11.77;3.05;;;;;;;;;;5052930;28;20025;-70
2021/06/24 12:55:31;;;;;;;13.13;3.90;;;;;;;;;;5052981;28;20036;-70
2021/06/24 12:57:59;;;;;;;16.13;3.28;;;;;;;;;;5053928;28;20055;-70
2021/06/24 13:00:26;;;;;;;18.25;4.70;;;;;;;;;;5052862;28;20165;-70
2021/06/24 13:02:53;;;;;;;16.77;3.85;;;;;;;;;;5052880;28;20388;-70
2021/06/24 13:05:23;;;;;;;12.65;3.55;;;;;;;;;;5053963;28;20025;-70
2021/06/24 13:07:58;;;;;;;13.50;4.15;;;;;;;;;;5054096;28;20029;-70
2021/06/24 13:10:24;;;;;;;13.23;3.35;;;;;;;;;;5053669;28;20021;-70
2021/06/24 13:12:51;;;;;;;15.57;5.07;;;;;;;;;;5054031;28;20529;-70
2021/06/24 13:15:30;;;;;;;14.15;3.75;;;;;;;;;;5053825;28;20035;-70
2021/06/24 13:17:56;;;;;;;17.30;4.60;;;;;;;;;;5053279;28;20389;-71
2021/06/24 13:20:23;;;;;;;14.60;4.43;;;;;;;;;;5053770;28;20381;-70
2021/06/24 13:22:49;;;;;;;18.63;3.60;;;;;;;;;;5053958;28;20477;-70
2021/06/24 13:25:22;;;;;;;18.60;4.10;;;;;;;;;;5053497;28;20049;-71
2021/06/24 13:27:48;;;;;;;21.35;4.50;;;;;;;;;;5053589;28;20029;-70
2021/06/24 13:30:17;;;;;;;13.05;3.28;;;;;;;;;;5053629;28;20017;-71
2021/06/24 13:32:45;;;;;;;14.05;3.67;;;;;;;;;;5053243;28;20029;-71
2021/06/24 13:35:15;;;;;;;19.15;3.72;;;;;;;;;;5053629;28;20025;-71
2021/06/24 13:37:48;;;;;;;11.60;3.67;;;;;;;;;;5053626;28;20389;-70
2021/06/24 13:40:16;;;;;;;17.50;3.70;;;;;;;;;;5051942;28;20048;-71
2021/06/24 13:42:49;;;;;;;15.57;4.40;;;;;;;;;;5053600;28;20021;-71
2021/06/24 13:45:15;;;;;;;20.70;5.07;;;;;;;;;;5053603;28;20025;-71
2021/06/24 13:47:42;;;;;;;20.83;4.10;;;;;;;;;;5051462;28;20072;-71
2021/06/24 13:50:08;;;;;;;21.58;4.78;;;;;;;;;;5053190;28;20021;-70
2021/06/24 13:52:34;;;;;;;16.48;4.22;;;;;;;;;;5053003;28;20110;-71
2021/06/24 13:55:02;;;;;;;15.45;3.75;;;;;;;;;;5053256;28;20021;-71
2021/06/24 13:57:28;;;;;;;19.25;5.00;;;;;;;;;;5052623;28;20405;-71
2021/06/24 13:59:54;;;;;;;23.33;5.07;;;;;;;;;;5052713;28;20021;-71
2021/06/24 14:02:20;;;;;;;16.45;4.30;;;;;;;;;;5053096;28;20027;-71
2021/06/24 14:04:47;;;;;;;17.25;4.28;;;;;;;;;;5053298;28;20032;-72
2021/06/24 14:07:13;;;;;;;11.93;3.67;;;;;;;;;;5052664;28;20036;-72
2021/06/24 14:09:40;;;;;;;15.57;4.20;;;;;;;;;;5051803;28;20392;-71
2021/06/24 14:12:07;;;;;;;15.00;4.60;;;;;;;;;;5052900;28;20017;-71
2021/06/24 14:14:33;;;;;;;20.60;4.88;;;;;;;;;;5052397;28;20103;-72
2021/06/24 14:17:00;;;;;;;14.88;3.85;;;;;;;;;;5052888;28;20096;-71
2021/06/24 14:19:28;;;;;;;11.07;4.00;;;;;;;;;;5052803;28;20031;-72
2021/06/24 14:21:58;;;;;;;19.27;4.75;;;;;;;;;;5052400;28;20025;-71
2021/06/24 14:24:24;;;;;;;15.77;4.45;;;;;;;;;;5052899;28;20444;-71
2021/06/24 14:26:50;;;;;;;14.35;3.90;;;;;;;;;;5053077;28;20029;-71
2021/06/24 14:29:16;;;;;;;20.77;4.18;;;;;;;;;;5052400;28;20029;-71
2021/06/24 14:31:43;;;;;;;17.73;4.50;;;;;;;;;;5052719;28;20021;-71
2021/06/24 14:34:10;;;;;;;20.67;4.93;;;;;;;;;;5052552;28;20100;-71
2021/06/24 14:36:36;;;;;;;16.58;4.55;;;;;;;;;;5052294;28;20025;-72
2021/06/24 14:39:02;;;;;;;21.58;5.10;;;;;;;;;;5051359;28;20029;-72
2021/06/24 14:41:29;;;;;;;15.57;3.85;;;;;;;;;;5051310;28;20484;-72
2021/06/24 14:43:55;;;;;;;13.10;4.45;;;;;;;;;;5050870;28;20393;-71
2021/06/24 14:46:22;;;;;;;14.93;4.05;;;;;;;;;;5052460;28;20074;-72
2021/06/24 14:48:48;;;;;;;14.75;4.13;;;;;;;;;;5052073;28;20511;-72
2021/06/24 14:51:14;;;;;;;21.02;5.90;;;;;;;;;;5052040;28;20469;-72
2021/06/24 14:53:41;;;;;;;16.77;4.47;;;;;;;;;;5052400;28;20025;-72
2021/06/24 14:56:08;;;;;;;16.52;4.43;;;;;;;;;;5052037;28;20021;-72
2021/06/24 14:58:34;;;;;;;18.92;5.13;;;;;;;;;;5052401;28;20025;-72
2021/06/24 15:01:01;;;;;;;21.58;4.30;;;;;;;;;;5051071;28;20388;-72
2021/06/24 15:03:27;;;;;;;15.63;4.68;;;;;;;;;;5052038;28;20032;-72
2021/06/24 15:05:53;;;;;;;19.27;3.97;;;;;;;;;;5052414;28;20025;-72
2021/06/24 15:08:19;;;;;;;15.52;3.90;;;;;;;;;;5052291;28;20044;-72
2021/06/24 15:10:46;;;;;;;18.02;5.95;;;;;;;;;;5055848;28;20485;-72